KCIKMI Weather Reports


Display with metric or nautical units.
time (UTC)temp
F
wind
direction
speed
MPH
gust
MPH
rain 1hr
in
rain 24hr
in
rain mn
in
humidity
%
barometer
mb
20260509235502 54 199 0.0 2.0 0.01 0.40 0.40 89 1011.3
20260509235004 55 188 0.0 2.0 0.01 0.40 0.40 89 1011.3
20260509234502 55 192 0.0 4.0 0.02 0.40 0.40 90 1011.3
20260509234002 55 203 0.0 4.0 0.02 0.40 0.40 90 1011.3
20260509233501 55 188 0.0 3.0 0.02 0.40 0.40 91 1011.4
20260509233002 55 207 0.0 4.0 0.02 0.40 0.40 91 1011.4
20260509232502 55 228 1.0 4.0 0.03 0.40 0.40 91 1011.4
20260509232002 55 199 0.0 2.0 0.02 0.39 0.39 92 1011.4
20260509231501 55 202 0.0 2.0 0.02 0.39 0.39 92 1011.4
20260509231001 55 204 0.0 2.0 0.02 0.39 0.39 92 1011.5
20260509230502 55 202 0.0 2.0 0.02 0.39 0.39 92 1011.5
20260509230001 56 201 0.0 2.0 0.02 0.39 0.39 92 1011.5
20260509225601 56 207 0.0 0.0 0.03 0.39 0.39 92 1011.4
20260509225100 56 207 0.0 0.0 0.04 0.39 0.39 92 1011.4
20260509224605 56 195 0.0 2.0 0.07 0.38 0.38 92 1011.4
20260509224100 56 197 0.0 2.0 0.11 0.38 0.38 92 1011.3
20260509223600 56 197 0.0 2.0 0.14 0.38 0.38 92 1011.3
20260509223107 56 187 0.0 1.0 0.16 0.38 0.38 92 1011.2
20260509222603 56 189 0.0 2.0 0.17 0.37 0.37 92 1011.2
20260509222100 56 195 0.0 2.0 0.20 0.37 0.37 92 1011.2
20260509221607 56 203 0.0 2.0 0.22 0.37 0.37 92 1011.2
20260509221059 56 211 0.0 2.0 0.25 0.37 0.37 92 1011.2
20260509220602 56 200 0.0 1.0 0.27 0.37 0.37 92 1011.2
20260509220100 56 189 0.0 2.0 0.28 0.37 0.37 92 1011.2
20260509215559 56 193 0.0 3.0 0.27 0.36 0.36 92 1011.2
20260509215059 56 202 0.0 3.0 0.27 0.35 0.35 92 1011.1
20260509214607 56 202 0.0 3.0 0.23 0.31 0.31 91 1011.0
20260509214057 56 195 0.0 2.0 0.19 0.27 0.27 91 1010.9
20260509213559 56 178 0.0 2.0 0.16 0.24 0.24 91 1010.9
20260509213058 56 218 0.0 2.0 0.14 0.22 0.22 90 1010.8
20260509212657 57 223 0.0 2.0 0.12 0.20 0.20 90 1010.8
20260509212059 57 202 0.0 2.0 0.10 0.17 0.17 90 1010.8
20260509211600 57 207 0.0 3.0 0.08 0.14 0.14 89 1010.7
20260509211101 57 188 0.0 4.0 0.06 0.11 0.11 89 1010.7
20260509210557 57 189 0.0 4.0 0.06 0.10 0.10 89 1010.8
20260509210114 57 190 1.0 6.0 0.06 0.09 0.09 88 1010.7
20260509205555 57 192 0.0 6.0 0.06 0.09 0.09 89 1010.7
20260509205055 57 166 0.0 4.0 0.05 0.08 0.08 89 1010.8
20260509204559 57 189 1.0 6.0 0.05 0.08 0.08 88 1010.9
20260509204055 57 197 1.0 6.0 0.05 0.08 0.08 88 1010.6
20260509203555 57 214 1.0 5.0 0.05 0.08 0.08 88 1010.4
20260509203055 58 203 1.0 4.0 0.05 0.08 0.08 87 1010.3
20260509202555 58 199 1.0 5.0 0.04 0.07 0.07 86 1010.3
20260509202055 58 233 1.0 6.0 0.04 0.07 0.07 85 1010.3
20260509201600 59 206 2.0 11.0 0.03 0.06 0.06 84 1010.2
20260509201053 59 204 4.0 11.0 0.02 0.05 0.05 82 1010.3
20260509200553 60 222 4.0 11.0 0.00 0.03 0.03 80 1010.6
20260509195552 61 202 1.0 8.0 0.00 0.03 0.03 76 1010.2
20260509195051 61 190 2.0 8.0 0.00 0.03 0.03 75 1010.4
20260509194552 62 197 2.0 8.0 0.00 0.03 0.03 75 1010.3
20260509194051 62 183 2.0 6.0 0.00 0.03 0.03 74 1010.3
20260509193551 62 194 1.0 6.0 0.00 0.03 0.03 73 1010.2
20260509193151 62 188 2.0 6.0 0.00 0.03 0.03 72 1010.4
20260509192553 62 228 0.0 4.0 0.00 0.03 0.03 72 1010.4
20260509192050 62 218 1.0 7.0 0.00 0.03 0.03 71 1010.4
20260509191550 62 218 1.0 7.0 0.00 0.03 0.03 69 1010.4
20260509191050 63 204 1.0 6.0 0.00 0.03 0.03 68 1010.4
20260509190550 63 195 1.0 8.0 0.00 0.03 0.03 68 1010.4
20260509185548 63 173 2.0 6.0 0.00 0.03 0.03 68 1010.5
20260509185047 63 239 1.0 4.0 0.00 0.03 0.03 71 1010.5
20260509184545 62 225 0.0 4.0 0.00 0.03 0.03 73 1010.5
20260509184044 62 169 0.0 4.0 0.00 0.03 0.03 73 1010.5
20260509183544 62 180 1.0 4.0 0.00 0.03 0.03 73 1010.5
20260509183044 62 313 1.0 4.0 0.00 0.03 0.03 73 1010.7
20260509182543 62 218 0.0 3.0 0.00 0.03 0.03 73 1010.7
20260509182043 62 211 1.0 3.0 0.00 0.03 0.03 73 1010.7
20260509181542 61 223 0.0 3.0 0.00 0.03 0.03 74 1010.7
20260509181043 61 254 0.0 3.0 0.00 0.03 0.03 75 1010.8
20260509180540 60 194 0.0 3.0 0.00 0.03 0.03 75 1010.8
20260509180038 60 205 1.0 3.0 0.00 0.03 0.03 76 1010.9
20260509175536 59 170 0.0 3.0 0.00 0.03 0.03 77 1010.8
20260509175035 59 186 0.0 2.0 0.00 0.03 0.03 78 1010.9
20260509174535 59 215 0.0 1.0 0.00 0.03 0.03 78 1011.0
20260509174034 58 200 0.0 2.0 0.00 0.03 0.03 79 1011.1
20260509173533 58 358 0.0 2.0 0.00 0.03 0.03 79 1011.1
20260509173033 58 188 0.0 2.0 0.00 0.03 0.03 80 1011.3
20260509172533 58 209 0.0 1.0 0.00 0.03 0.03 80 1011.3
20260509172033 58 206 0.0 0.0 0.00 0.03 0.03 82 1011.0
20260509171537 57 202 0.0 2.0 0.00 0.03 0.03 81 1011.4
20260509171030 57 223 0.0 3.0 0.00 0.03 0.03 81 1011.6
20260509170531 57 194 0.0 3.0 0.00 0.03 0.03 80 1011.9
20260509170031 57 196 0.0 3.0 0.00 0.03 0.03 79 1011.9
20260509165526 57 211 0.0 3.0 0.00 0.03 0.03 79 1011.8
20260509165028 57 209 0.0 3.0 0.00 0.03 0.03 79 1011.8
20260509164526 57 204 0.0 3.0 0.00 0.03 0.03 78 1011.8
20260509164028 57 237 0.0 3.0 0.00 0.03 0.03 77 1011.8
20260509163530 57 210 0.0 3.0 0.00 0.03 0.03 76 1011.8
20260509163027 58 202 1.0 3.0 0.00 0.03 0.03 75 1011.7
20260509162525 58 216 0.0 3.0 0.00 0.03 0.03 75 1011.8
20260509162025 58 199 0.0 3.0 0.00 0.03 0.03 75 1011.7
20260509161525 58 203 0.0 3.0 0.00 0.03 0.03 75 1011.8
20260509161024 58 190 1.0 4.0 0.00 0.03 0.03 74 1011.8
20260509160523 59 193 0.0 4.0 0.00 0.03 0.03 73 1011.9
20260509160023 59 189 0.0 6.0 0.00 0.03 0.03 74 1011.9
20260509155522 58 210 0.0 6.0 0.00 0.03 0.03 75 1011.9
20260509155022 58 196 1.0 6.0 0.00 0.03 0.03 75 1012.0
20260509154521 58 230 1.0 4.0 0.00 0.03 0.03 74 1012.0
20260509154023 58 229 0.0 3.0 0.00 0.03 0.03 75 1012.2
20260509153522 58 206 0.0 2.0 0.00 0.03 0.03 74 1012.2
20260509153019 58 204 0.0 2.0 0.00 0.03 0.03 74 1012.2
20260509152519 58 209 0.0 2.0 0.00 0.03 0.03 73 1012.2
20260509152019 58 214 0.0 2.0 0.00 0.03 0.03 74 1012.3
20260509151518 58 249 0.0 5.0 0.00 0.03 0.03 74 1012.2
20260509151018 58 216 1.0 5.0 0.00 0.03 0.03 74 1012.2
20260509150518 58 201 2.0 5.0 0.00 0.03 0.03 74 1012.3
20260509150030 59 220 0.0 4.0 0.00 0.03 0.03 75 1012.3
20260509145517 59 256 0.0 4.0 0.00 0.03 0.03 73 1012.4
20260509145017 59 214 0.0 3.0 0.00 0.03 0.03 76 1012.3
20260509144528 59 257 0.0 3.0 0.00 0.03 0.03 76 1012.2
20260509144019 59 257 0.0 3.0 0.00 0.03 0.03 76 1012.3
20260509143515 58 210 0.0 1.0 0.00 0.03 0.03 77 1012.4
20260509143015 58 196 0.0 2.0 0.00 0.03 0.03 77 1012.3
20260509142514 58 346 0.0 2.0 0.00 0.03 0.03 78 1012.3
20260509142014 57 197 0.0 1.0 0.00 0.03 0.03 79 1012.1
20260509141515 57 204 0.0 1.0 0.00 0.03 0.03 77 1012.0
20260509141014 57 268 0.0 1.0 0.00 0.03 0.03 77 1012.1
20260509140509 57 206 0.0 1.0 0.00 0.03 0.03 78 1012.2
20260509140008 57 190 0.0 3.0 0.00 0.03 0.03 80 1012.4
20260509135508 56 203 0.0 4.0 0.00 0.03 0.03 81 1012.6
20260509135007 56 193 1.0 4.0 0.00 0.03 0.03 80 1012.7
20260509134510 56 196 0.0 2.0 0.00 0.03 0.03 80 1012.8
20260509134010 56 194 0.0 5.0 0.00 0.03 0.03 82 1012.7
20260509133506 55 192 0.0 5.0 0.00 0.03 0.03 82 1012.9
20260509133004 55 204 0.0 1.0 0.00 0.03 0.03 84 1013.0
20260509132502 55 211 0.0 1.0 0.00 0.03 0.03 84 1012.8
20260509132003 55 223 0.0 1.0 0.00 0.03 0.03 85 1013.0
20260509131502 54 203 0.0 0.0 0.00 0.03 0.03 86 1013.0
20260509131100 54 204 0.0 0.0 0.00 0.03 0.03 85 1013.2
20260509130602 54 209 0.0 0.0 0.00 0.03 0.03 85 1013.2
20260509130059 53 311 0.0 1.0 0.00 0.03 0.03 86 1013.3
20260509125558 53 312 0.0 1.0 0.01 0.03 0.03 86 1013.3
20260509125056 53 203 0.0 1.0 0.01 0.03 0.03 87 1013.3
20260509124555 53 214 0.0 1.0 0.01 0.03 0.03 88 1013.2
20260509124055 52 342 0.0 1.0 0.01 0.03 0.03 90 1013.2
20260509123554 52 342 0.0 1.0 0.01 0.03 0.03 91 1013.1
20260509123054 52 343 0.0 0.0 0.01 0.03 0.03 91 1013.0
20260509122551 51 343 0.0 0.0 0.01 0.03 0.03 91 1013.0
20260509122050 51 342 0.0 0.0 0.01 0.03 0.03 91 1013.1
20260509121552 51 344 0.0 0.0 0.01 0.03 0.03 91 1013.2
20260509121049 50 344 0.0 0.0 0.01 0.03 0.03 91 1013.3
20260509120547 50 344 0.0 0.0 0.01 0.03 0.03 91 1013.2
20260509120045 50 347 0.0 0.0 0.01 0.03 0.03 91 1013.1
20260509115544 50 353 0.0 3.0 0.01 0.02 0.02 91 1013.0
20260509115043 50 358 0.0 3.0 0.01 0.02 0.02 92 1012.9
20260509114545 49 354 0.0 2.0 0.01 0.02 0.02 91 1012.9
20260509114042 49 348 0.0 1.0 0.01 0.02 0.02 91 1013.0
20260509113541 49 344 0.0 0.0 0.01 0.02 0.02 91 1013.1
20260509113044 48 263 0.0 0.0 0.01 0.02 0.02 91 1013.1
20260509112538 48 244 0.0 0.0 0.02 0.02 0.02 90 1013.2
20260509112037 48 181 0.0 0.0 0.02 0.02 0.02 90 1013.3
20260509111536 48 181 0.0 0.0 0.02 0.02 0.02 90 1013.4
20260509111035 48 181 0.0 0.0 0.02 0.02 0.02 90 1013.5
20260509110536 48 181 0.0 0.0 0.02 0.02 0.02 89 1013.5
20260509110033 47 181 0.0 0.0 0.02 0.02 0.02 89 1013.4
20260509105533 47 181 0.0 0.0 0.01 0.01 0.01 89 1013.4
20260509105033 47 181 0.0 0.0 0.01 0.01 0.01 89 1013.4
20260509104533 47 181 0.0 0.0 0.01 0.01 0.01 89 1013.4
20260509104032 47 181 0.0 0.0 0.01 0.01 0.01 88 1013.4
20260509103533 47 181 0.0 0.0 0.01 0.01 0.01 87 1013.5
20260509103031 47 181 0.0 0.0 0.01 0.01 0.01 87 1013.5
20260509102532 47 181 0.0 0.0 0.00 0.00 0.00 86 1013.2
20260509102032 47 181 0.0 0.0 0.00 0.00 0.00 86 1013.1
20260509101536 47 180 0.0 0.0 0.00 0.00 0.00 86 1013.1
20260509101029 47 181 0.0 0.0 0.00 0.00 0.00 85 1013.2
20260509100529 47 180 0.0 0.0 0.00 0.00 0.00 84 1013.2
20260509100028 47 180 0.0 0.0 0.00 0.00 0.00 83 1013.2
20260509095528 47 180 0.0 0.0 0.00 0.00 0.00 82 1013.3
20260509095027 48 181 0.0 0.0 0.00 0.00 0.00 82 1013.3
20260509094526 48 181 0.0 0.0 0.00 0.00 0.00 82 1013.2
20260509094027 48 181 0.0 0.0 0.00 0.00 0.00 82 1013.1
20260509093527 47 181 0.0 0.0 0.00 0.00 0.00 81 1012.9
20260509093025 47 181 0.0 0.0 0.00 0.00 0.00 81 1012.7
20260509092524 47 180 0.0 0.0 0.00 0.00 0.00 80 1012.6
20260509092028 47 181 0.0 0.0 0.00 0.00 0.00 80 1012.6
20260509091525 47 180 0.0 0.0 0.00 0.00 0.00 80 1012.5
20260509091023 47 180 0.0 0.0 0.00 0.00 0.00 80 1012.5
20260509090528 47 181 0.0 0.0 0.00 0.00 0.00 80 1012.4
20260509090023 47 181 0.0 0.0 0.00 0.00 0.00 80 1012.3
20260509085522 47 181 0.0 0.0 0.00 0.00 0.00 80 1012.2
20260509085021 47 180 0.0 0.0 0.00 0.00 0.00 79 1012.3
20260509084521 47 181 0.0 0.0 0.00 0.00 0.00 79 1012.3
20260509084021 47 181 0.0 0.0 0.00 0.00 0.00 79 1012.2
20260509083520 47 180 0.0 0.0 0.00 0.00 0.00 79 1012.1
20260509083021 46 181 0.0 0.0 0.00 0.00 0.00 79 1012.1
20260509082519 46 181 0.0 0.0 0.00 0.00 0.00 79 1012.2
20260509082020 46 181 0.0 0.0 0.00 0.00 0.00 79 1012.2
20260509081519 46 180 0.0 0.0 0.00 0.00 0.00 79 1012.2
20260509081019 46 180 0.0 0.0 0.00 0.00 0.00 79 1012.2
20260509080518 46 180 0.0 0.0 0.00 0.00 0.00 79 1012.3
20260509080018 46 181 0.0 0.0 0.00 0.00 0.00 79 1012.3
20260509075517 46 181 0.0 0.0 0.00 0.00 0.00 79 1012.3
20260509075016 46 180 0.0 0.0 0.00 0.00 0.00 79 1012.3
20260509074517 46 181 0.0 0.0 0.00 0.00 0.00 79 1012.3
20260509074016 46 181 0.0 0.0 0.00 0.00 0.00 79 1012.4
20260509073516 46 181 0.0 0.0 0.00 0.00 0.00 79 1012.5
20260509073016 46 181 0.0 0.0 0.00 0.00 0.00 79 1012.5
20260509072516 46 181 0.0 0.0 0.00 0.00 0.00 78 1012.5
20260509072017 46 181 0.0 0.0 0.00 0.00 0.00 78 1012.6
20260509071516 45 180 0.0 0.0 0.00 0.00 0.00 78 1012.7
20260509071016 45 181 0.0 0.0 0.00 0.00 0.00 77 1012.8
20260509070519 46 181 0.0 0.0 0.00 0.00 0.00 78 1012.8
20260509070015 46 181 0.0 0.0 0.00 0.00 0.00 77 1012.6
20260509065514 46 181 0.0 0.0 0.00 0.00 0.00 77 1012.6
20260509065013 46 181 0.0 0.0 0.00 0.00 0.00 76 1012.6
20260509064513 47 181 0.0 0.0 0.00 0.00 0.00 76 1012.7
20260509064014 47 181 0.0 0.0 0.00 0.00 0.00 76 1012.8
20260509063513 47 181 0.0 0.0 0.00 0.00 0.00 76 1012.8
20260509063013 47 180 0.0 0.0 0.00 0.00 0.00 75 1012.8
20260509062515 47 180 0.0 0.0 0.00 0.00 0.00 75 1012.8
20260509062016 47 181 0.0 0.0 0.00 0.00 0.00 74 1012.8
20260509061512 47 181 0.0 0.0 0.00 0.00 0.00 75 1012.8
20260509061012 47 180 0.0 0.0 0.00 0.00 0.00 75 1012.9
20260509060513 47 181 0.0 0.0 0.00 0.00 0.00 75 1012.8
20260509060010 47 181 0.0 0.0 0.00 0.00 0.00 75 1012.8
20260509055510 46 181 0.0 0.0 0.00 0.00 0.00 75 1012.7
20260509055012 46 181 0.0 0.0 0.00 0.00 0.00 74 1012.8
20260509054509 46 181 0.0 0.0 0.00 0.00 0.00 74 1012.8
20260509054010 46 180 0.0 0.0 0.00 0.00 0.00 73 1012.7
20260509053510 46 180 0.0 0.0 0.00 0.00 0.00 73 1012.7
20260509053009 46 181 0.0 0.0 0.00 0.00 0.00 73 1012.6
20260509052508 46 180 0.0 0.0 0.00 0.00 0.00 73 1012.6
20260509052008 46 180 0.0 0.0 0.00 0.00 0.00 75 1012.6
20260509051514 46 180 0.0 0.0 0.00 0.00 0.00 75 1012.6
20260509051009 46 181 0.0 0.0 0.00 0.00 0.00 75 1012.6
20260509050508 46 181 0.0 0.0 0.00 0.00 0.00 76 1012.8
20260509050007 46 181 0.0 0.0 0.00 0.00 0.00 77 1012.6
20260509045507 46 180 0.0 0.0 0.00 0.00 0.00 77 1012.7
20260509045007 46 180 0.0 0.0 0.00 0.00 0.00 76 1012.7
20260509044507 46 180 0.0 0.0 0.00 0.00 0.00 76 1012.7
20260509044006 46 181 0.0 0.0 0.00 0.00 0.00 75 1012.6
20260509043508 46 180 0.0 0.0 0.00 0.00 0.00 78 1012.7
20260509043005 46 181 0.0 0.0 0.00 0.00 0.00 78 1012.6
20260509042505 46 180 0.0 0.0 0.00 0.00 0.00 78 1012.6
20260509042005 46 180 0.0 0.0 0.00 0.00 0.00 76 1012.6
20260509041503 46 180 0.0 0.0 0.00 0.00 0.00 76 1012.5
20260509041003 46 180 0.0 0.0 0.00 0.00 0.00 76 1012.4
20260509040501 46 180 0.0 0.0 0.00 0.00 0.00 75 1012.2
20260509040100 46 180 0.0 0.0 0.00 0.00 0.00 73 1012.4
20260509035600 46 181 0.0 0.0 0.00 0.00 0.00 70 1012.4
20260509035058 47 181 0.0 0.0 0.00 0.00 0.00 69 1012.3
20260509034559 47 180 0.0 0.0 0.00 0.00 0.00 67 1012.3
20260509034057 47 180 0.0 0.0 0.00 0.00 0.00 68 1012.2
20260509033558 47 180 0.0 0.0 0.00 0.00 0.00 68 1012.2
20260509033100 47 180 0.0 0.0 0.00 0.00 0.00 68 1012.3
20260509032558 47 180 0.0 0.0 0.00 0.00 0.00 68 1012.3
20260509032057 48 180 0.0 0.0 0.00 0.00 0.00 69 1012.3
20260509031559 48 181 0.0 0.0 0.00 0.00 0.00 72 1012.2
20260509031057 48 180 0.0 0.0 0.00 0.00 0.00 72 1012.3
20260509030556 48 180 0.0 0.0 0.00 0.00 0.00 71 1012.3
20260509030055 47 181 0.0 0.0 0.00 0.00 0.00 69 1012.1
20260509025558 47 180 0.0 0.0 0.00 0.00 0.00 68 1012.1
20260509025054 48 181 0.0 0.0 0.00 0.00 0.00 68 1012.1
20260509024554 48 180 0.0 0.0 0.00 0.00 0.00 67 1012.1
20260509024054 48 180 0.0 0.0 0.00 0.00 0.00 66 1012.1
20260509023553 49 181 0.0 0.0 0.00 0.00 0.00 67 1012.0
20260509023052 49 181 0.0 0.0 0.00 0.00 0.00 68 1012.0
20260509022553 49 181 0.0 0.0 0.00 0.00 0.00 68 1012.0
20260509022051 49 181 0.0 0.0 0.00 0.00 0.00 68 1011.9
20260509021550 50 180 0.0 0.0 0.00 0.00 0.00 66 1011.9
20260509021049 50 180 0.0 0.0 0.00 0.00 0.00 66 1011.7
20260509020548 50 180 0.0 0.0 0.00 0.00 0.00 66 1011.8
20260509020048 50 180 0.0 0.0 0.00 0.00 0.00 64 1011.7
20260509015548 50 180 0.0 0.0 0.00 0.00 0.00 62 1011.6
20260509015048 51 180 0.0 0.0 0.00 0.00 0.00 60 1011.4
20260509014546 51 180 0.0 0.0 0.00 0.00 0.00 60 1011.4
20260509014045 51 180 0.0 0.0 0.00 0.00 0.00 59 1011.3
20260509013545 52 180 0.0 0.0 0.00 0.00 0.00 58 1011.3
20260509013053 52 180 0.0 0.0 0.00 0.00 0.00 56 1011.2
20260509012544 52 180 0.0 0.0 0.00 0.00 0.00 54 1011.2
20260509012044 53 180 0.0 0.0 0.00 0.00 0.00 53 1011.2
20260509011543 53 180 0.0 0.0 0.00 0.00 0.00 52 1011.1
20260509011042 53 180 0.0 0.0 0.00 0.00 0.00 50 1011.0
20260509010542 54 182 0.0 1.0 0.00 0.00 0.00 50 1010.9
20260509010041 54 182 0.0 1.0 0.00 0.00 0.00 50 1010.8
20260509005540 54 216 0.0 2.0 0.00 0.00 0.00 49 1010.7
20260509005038 54 216 0.0 4.0 0.00 0.00 0.00 49 1010.5
20260509004540 55 313 0.0 4.0 0.00 0.00 0.00 49 1010.4
20260509004038 55 1 0.0 1.0 0.00 0.00 0.00 48 1010.4
20260509003537 55 14 0.0 3.0 0.00 0.00 0.00 47 1010.3
20260509003036 55 177 0.0 3.0 0.00 0.00 0.00 49 1010.1
20260509002539 55 7 0.0 1.0 0.00 0.00 0.00 48 1010.0
20260509002035 55 26 0.0 0.0 0.00 0.00 0.00 48 1010.0
20260509001540 56 22 0.0 3.0 0.00 0.00 0.00 48 1009.9
20260509001034 56 342 0.0 4.0 0.00 0.00 0.00 47 1009.8
20260509000535 56 356 0.0 4.0 0.00 0.00 0.00 47 1009.8
20260509000032 56 345 0.0 3.0 0.00 0.00 0.00 47 1009.6